createdAt,value
2023-01-28T00:02:00.584Z,101843.61
2023-01-28T00:04:28.409Z,101836.36
2023-01-28T00:06:56.720Z,101836.67
2023-01-28T00:09:24.730Z,101840.03
2023-01-28T00:11:52.982Z,101838.66
2023-01-28T00:14:20.913Z,101840.65
2023-01-28T00:16:48.835Z,101836.84
2023-01-28T00:19:16.819Z,101834.82
2023-01-28T00:21:44.706Z,101839.02
2023-01-28T00:24:12.698Z,101835.59
2023-01-28T00:26:41.117Z,101837.25
2023-01-28T00:29:09.135Z,101833.48
2023-01-28T00:31:37.893Z,101833.33
2023-01-28T00:34:06.202Z,101835.66
2023-01-28T00:36:39.296Z,101837.55
2023-01-28T00:39:07.346Z,101842.06
2023-01-28T00:41:36.250Z,101843.48
2023-01-28T00:44:04.257Z,101845.67
2023-01-28T00:46:32.381Z,101847.05
2023-01-28T00:49:00.504Z,101840.73
2023-01-28T00:51:28.464Z,101842.02
2023-01-28T00:53:56.400Z,101839.04
2023-01-28T00:56:24.948Z,101838.16
2023-01-28T00:58:52.974Z,101837.65
2023-01-28T01:01:24.350Z,101839.91
2023-01-28T01:04:03.329Z,101837.26
2023-01-28T01:06:35.383Z,101841.53
2023-01-28T01:09:10.757Z,101837.48
2023-01-28T01:11:39.102Z,101832.64
2023-01-28T01:14:07.307Z,101834.36
2023-01-28T01:16:36.388Z,101837.59
2023-01-28T01:19:04.543Z,101838.95
2023-01-28T01:21:32.370Z,101837.33
2023-01-28T01:24:00.447Z,101839.42
2023-01-28T01:26:28.490Z,101841.45
2023-01-28T01:28:58.651Z,101838.53
2023-01-28T01:31:26.988Z,101839.73
2023-01-28T01:33:54.846Z,101843.86
2023-01-28T01:36:23.855Z,101845.30
2023-01-28T01:38:56.366Z,101844.78
2023-01-28T01:41:29.124Z,101846.30
2023-01-28T01:44:02.597Z,101841.00
2023-01-28T01:46:43.904Z,101836.49
2023-01-28T01:49:26.020Z,101836.55
2023-01-28T01:52:13.436Z,101837.19
2023-01-28T01:54:45.028Z,101836.48
2023-01-28T01:57:21.374Z,101838.04
2023-01-28T01:59:49.542Z,101836.28
2023-01-28T02:02:17.724Z,101835.14
2023-01-28T02:04:45.814Z,101835.61
2023-01-28T02:07:19.407Z,101831.87
2023-01-28T02:09:47.666Z,101837.60
2023-01-28T02:12:23.319Z,101836.02
2023-01-28T02:14:56.707Z,101832.55
2023-01-28T02:17:25.572Z,101836.34
2023-01-28T02:20:00.937Z,101838.99
2023-01-28T02:22:38.507Z,101836.09
2023-01-28T02:25:09.453Z,101840.38
2023-01-28T02:28:07.145Z,101846.88
2023-01-28T02:31:05.343Z,101841.50
2023-01-28T02:33:52.625Z,101839.45
2023-01-28T02:36:36.483Z,101840.73
2023-01-28T02:39:13.508Z,101845.00
2023-01-28T02:42:07.610Z,101841.38
2023-01-28T02:44:35.700Z,101839.50
2023-01-28T02:47:29.237Z,101841.17
2023-01-28T02:49:59.941Z,101842.17
2023-01-28T02:52:51.223Z,101845.31
2023-01-28T02:55:59.082Z,101847.20
2023-01-28T02:58:48.119Z,101847.41
2023-01-28T03:01:28.661Z,101843.52
2023-01-28T03:04:02.665Z,101842.26
2023-01-28T03:06:40.089Z,101852.73
2023-01-28T03:09:27.275Z,101851.54
2023-01-28T03:12:23.885Z,101844.48
2023-01-28T03:15:35.717Z,101852.84
2023-01-28T03:18:37.114Z,101857.15
2023-01-28T03:21:39.368Z,101854.87
2023-01-28T03:24:32.161Z,101852.91
2023-01-28T03:27:29.836Z,101856.35
2023-01-28T03:30:30.420Z,101854.59
2023-01-28T03:33:18.650Z,101855.21
2023-01-28T03:36:06.615Z,101857.74
2023-01-28T03:38:42.160Z,101859.98
2023-01-28T03:41:12.685Z,101863.50
2023-01-28T03:43:41.794Z,101868.90
2023-01-28T03:46:10.013Z,101863.83
2023-01-28T03:48:38.077Z,101864.54
2023-01-28T03:51:07.020Z,101866.95
2023-01-28T03:53:35.044Z,101870.72
2023-01-28T03:56:02.998Z,101870.98
2023-01-28T03:58:53.040Z,101870.16
2023-01-28T04:01:21.508Z,101875.98
2023-01-28T04:03:49.907Z,101877.36
2023-01-28T04:06:26.592Z,101877.46
2023-01-28T04:09:22.215Z,101878.83
2023-01-28T04:11:56.216Z,101877.92
2023-01-28T04:14:29.173Z,101876.42
2023-01-28T04:17:11.213Z,101879.46
2023-01-28T04:19:40.536Z,101883.30
2023-01-28T04:22:12.155Z,101885.80
2023-01-28T04:24:41.727Z,101885.98
2023-01-28T04:27:10.046Z,101894.80
2023-01-28T04:29:38.117Z,101896.98
2023-01-28T04:32:28.838Z,101898.63
2023-01-28T04:35:11.586Z,101895.35
2023-01-28T04:38:09.004Z,101895.61
2023-01-28T04:40:52.437Z,101899.25
2023-01-28T04:43:29.514Z,101898.21
2023-01-28T04:46:20.090Z,101894.10
2023-01-28T04:48:58.451Z,101894.96
2023-01-28T04:51:52.904Z,101889.13
2023-01-28T04:54:36.403Z,101889.27
2023-01-28T04:57:05.988Z,101889.37
2023-01-28T04:59:36.357Z,101889.30
2023-01-28T05:02:04.494Z,101889.91
2023-01-28T05:04:33.274Z,101892.35
2023-01-28T05:07:02.695Z,101895.20
2023-01-28T05:09:33.878Z,101893.41
2023-01-28T05:12:01.996Z,101894.56
2023-01-28T05:14:32.407Z,101894.30
2023-01-28T05:17:05.847Z,101895.17
2023-01-28T05:19:34.015Z,101898.76
2023-01-28T05:22:03.372Z,101904.19
2023-01-28T05:24:45.935Z,101905.41
2023-01-28T05:27:15.183Z,101906.30
2023-01-28T05:29:43.314Z,101912.47
2023-01-28T05:32:11.238Z,101913.14
2023-01-28T05:34:39.142Z,101916.73
2023-01-28T05:37:13.526Z,101914.65
2023-01-28T05:39:41.478Z,101917.30
2023-01-28T05:42:10.593Z,101918.79
2023-01-28T05:44:44.066Z,101926.03
2023-01-28T05:47:24.901Z,101933.06
2023-01-28T05:50:21.801Z,101929.29
2023-01-28T05:53:25.091Z,101928.86
2023-01-28T05:55:54.363Z,101931.91
2023-01-28T05:58:23.883Z,101936.73
2023-01-28T06:00:55.484Z,101938.49
2023-01-28T06:03:24.561Z,101939.79
2023-01-28T06:05:52.975Z,101943.20
2023-01-28T06:08:21.059Z,101946.77
2023-01-28T06:10:49.355Z,101950.41
2023-01-28T06:13:17.401Z,101955.90
2023-01-28T06:16:04.959Z,101955.67
2023-01-28T06:18:59.532Z,101953.06
2023-01-28T06:21:30.070Z,101957.89
2023-01-28T06:23:59.362Z,101962.47
2023-01-28T06:26:27.244Z,101961.42
2023-01-28T06:28:55.139Z,101959.49
2023-01-28T06:31:23.072Z,101960.08
2023-01-28T06:33:51.059Z,101963.29
2023-01-28T06:36:18.912Z,101965.73
2023-01-28T06:38:46.933Z,101960.77
2023-01-28T06:41:14.801Z,101958.39
2023-01-28T06:43:42.791Z,101957.87
2023-01-28T06:46:11.140Z,101963.20
2023-01-28T06:48:39.231Z,101968.77
2023-01-28T06:51:07.282Z,101968.73
2023-01-28T06:53:35.392Z,101970.43
2023-01-28T06:56:03.693Z,101975.20
2023-01-28T06:58:31.512Z,101970.83
2023-01-28T07:00:59.426Z,101972.23
2023-01-28T07:03:27.417Z,101970.11
2023-01-28T07:05:55.326Z,101971.02
2023-01-28T07:08:23.493Z,101977.17
2023-01-28T07:10:51.463Z,101980.44
2023-01-28T07:13:19.342Z,101978.91
2023-01-28T07:15:47.276Z,101979.43
2023-01-28T07:18:15.163Z,101982.71
2023-01-28T07:20:43.647Z,101982.52
2023-01-28T07:23:12.456Z,101989.04
2023-01-28T07:25:40.410Z,101984.41
2023-01-28T07:28:08.486Z,101987.48
2023-01-28T07:30:36.393Z,101984.38
2023-01-28T07:33:04.627Z,101984.24
2023-01-28T07:35:32.915Z,101987.36
2023-01-28T07:38:01.535Z,101989.16
2023-01-28T07:40:30.033Z,101985.34
2023-01-28T07:42:57.983Z,101988.84
2023-01-28T07:45:30.522Z,101992.04
2023-01-28T07:48:05.899Z,101989.04
2023-01-28T07:50:36.290Z,101989.01
2023-01-28T07:53:06.471Z,101988.11
2023-01-28T07:55:38.218Z,101987.23
2023-01-28T07:58:07.697Z,101984.39
2023-01-28T08:00:37.380Z,101986.84
2023-01-28T08:03:08.230Z,101981.23
2023-01-28T08:05:42.006Z,101980.59
2023-01-28T08:08:10.993Z,101982.13
2023-01-28T08:10:39.304Z,101978.81
2023-01-28T08:13:07.759Z,101979.56
2023-01-28T08:15:36.985Z,101978.27
2023-01-28T08:18:06.925Z,101976.27
2023-01-28T08:20:35.193Z,101978.01
2023-01-28T08:23:15.606Z,101982.84
2023-01-28T08:25:43.870Z,101982.72
2023-01-28T08:28:13.244Z,101987.31
2023-01-28T08:30:42.260Z,101985.76
2023-01-28T08:33:12.765Z,101985.92
2023-01-28T08:35:41.259Z,101983.80
2023-01-28T08:38:11.250Z,101980.87
2023-01-28T08:40:39.149Z,101981.59
2023-01-28T08:43:08.152Z,101985.59
2023-01-28T08:45:36.459Z,101990.14
2023-01-28T08:48:06.357Z,101993.41
2023-01-28T08:50:37.453Z,101991.44
2023-01-28T08:53:08.302Z,101990.02
2023-01-28T08:55:36.453Z,101990.11
2023-01-28T08:58:11.371Z,101990.13
2023-01-28T09:00:40.716Z,101998.58
2023-01-28T09:03:09.312Z,102001.33
2023-01-28T09:05:38.927Z,102001.70
2023-01-28T09:08:12.729Z,102003.68
2023-01-28T09:10:42.121Z,102005.88
2023-01-28T09:13:12.886Z,102000.55
2023-01-28T09:15:41.205Z,102002.04
2023-01-28T09:18:09.163Z,101994.30
2023-01-28T09:20:38.276Z,101991.44
2023-01-28T09:23:06.967Z,101996.48
2023-01-28T09:25:36.417Z,102005.13
2023-01-28T09:28:04.650Z,102004.04
2023-01-28T09:30:35.350Z,102000.52
2023-01-28T09:33:05.108Z,101997.55
2023-01-28T09:35:34.571Z,101989.73
2023-01-28T09:38:02.484Z,101999.67
2023-01-28T09:40:30.525Z,102001.95
2023-01-28T09:43:25.938Z,102005.54
2023-01-28T09:45:58.425Z,101997.08
2023-01-28T09:48:33.871Z,101990.15
2023-01-28T09:51:02.048Z,101989.98
2023-01-28T09:53:36.934Z,101988.52
2023-01-28T09:56:15.266Z,101993.95
2023-01-28T09:58:43.378Z,101998.69
2023-01-28T10:01:32.475Z,101994.80
2023-01-28T10:04:09.603Z,101994.91
2023-01-28T10:07:06.281Z,101997.40
2023-01-28T10:09:51.445Z,101999.60
2023-01-28T10:12:58.777Z,101996.31
2023-01-28T10:15:50.499Z,101997.84
2023-01-28T10:18:29.251Z,102002.45
2023-01-28T10:21:07.854Z,102001.96
2023-01-28T10:23:46.751Z,102001.45
2023-01-28T10:26:24.016Z,101998.86
2023-01-28T10:28:58.532Z,102005.75
2023-01-28T10:31:37.279Z,102003.46
2023-01-28T10:34:05.401Z,102010.64
2023-01-28T10:36:33.842Z,102011.70
2023-01-28T10:39:01.765Z,102010.80
2023-01-28T10:41:29.897Z,102013.48
2023-01-28T10:43:58.132Z,102015.02
2023-01-28T10:46:33.713Z,102012.45
2023-01-28T10:49:11.898Z,102014.40
2023-01-28T10:51:42.968Z,102013.41
2023-01-28T10:54:23.832Z,102017.92
2023-01-28T10:57:03.173Z,102015.45
2023-01-28T10:59:41.727Z,102013.56
2023-01-28T11:02:33.140Z,102009.55
2023-01-28T11:05:23.075Z,102014.97
2023-01-28T11:07:51.779Z,102013.63
2023-01-28T11:10:38.300Z,102008.73
2023-01-28T11:13:14.900Z,102008.92
2023-01-28T11:15:54.136Z,102009.23
2023-01-28T11:18:46.754Z,102007.29
2023-01-28T11:21:19.753Z,102010.38
2023-01-28T11:23:59.400Z,102007.61
2023-01-28T11:26:32.313Z,102002.70
2023-01-28T11:29:00.348Z,101999.52
2023-01-28T11:31:29.057Z,101998.04
2023-01-28T11:34:03.143Z,101994.25
2023-01-28T11:36:33.244Z,101990.50
2023-01-28T11:39:20.402Z,101988.38
2023-01-28T11:41:48.677Z,101986.28
2023-01-28T11:44:21.464Z,101988.20
2023-01-28T11:47:04.563Z,101985.23
2023-01-28T11:49:49.131Z,101986.08
2023-01-28T11:52:48.633Z,101988.85
2023-01-28T11:55:34.522Z,101988.31
2023-01-28T11:58:27.646Z,101988.45
2023-01-28T12:01:22.110Z,101994.15
2023-01-28T12:04:18.243Z,101988.45
2023-01-28T12:06:51.842Z,101982.20
2023-01-28T12:09:32.309Z,101981.05
2023-01-28T12:12:26.688Z,101973.30
2023-01-28T12:15:08.809Z,101969.12
2023-01-28T12:17:51.639Z,101971.98
2023-01-28T12:20:39.116Z,101971.38
2023-01-28T12:23:39.175Z,101966.14
2023-01-28T12:26:16.620Z,101963.96
2023-01-28T12:28:47.486Z,101955.92
2023-01-28T12:31:45.110Z,101952.98
2023-01-28T12:35:07.954Z,101957.83
2023-01-28T12:37:57.384Z,101956.11
2023-01-28T12:40:34.801Z,101951.15
2023-01-28T12:43:06.178Z,101953.96
2023-01-28T12:45:41.208Z,101954.11
2023-01-28T12:48:24.353Z,101948.92
2023-01-28T12:51:00.285Z,101948.13
2023-01-28T12:53:49.864Z,101955.82
2023-01-28T12:56:37.969Z,101958.84
2023-01-28T12:59:33.979Z,101960.52
2023-01-28T13:02:14.144Z,101962.63
2023-01-28T13:05:02.403Z,101968.20
2023-01-28T13:07:44.440Z,101965.49
2023-01-28T13:10:37.219Z,101966.79
2023-01-28T13:13:05.971Z,101972.04
2023-01-28T13:15:40.767Z,101972.38
2023-01-28T13:18:33.407Z,101968.85
2023-01-28T13:21:03.314Z,101972.44
2023-01-28T13:23:31.267Z,101976.79
2023-01-28T13:26:11.294Z,101978.10
2023-01-28T13:28:39.421Z,101974.24
2023-01-28T13:31:17.845Z,101968.55
2023-01-28T13:34:00.757Z,101968.04
2023-01-28T13:36:37.400Z,101966.02
2023-01-28T13:39:17.080Z,101974.23
2023-01-28T13:41:49.569Z,101977.92
2023-01-28T13:44:27.825Z,101977.99
2023-01-28T13:47:08.458Z,101979.59
2023-01-28T13:49:46.186Z,101974.36
2023-01-28T13:52:24.558Z,101971.64
2023-01-28T13:54:57.638Z,101975.15
2023-01-28T13:57:43.728Z,101981.63
2023-01-28T14:00:29.436Z,101979.54
2023-01-28T14:03:34.978Z,101980.42
2023-01-28T14:06:21.987Z,101977.45
2023-01-28T14:09:26.638Z,101984.15
2023-01-28T14:12:25.766Z,101984.94
2023-01-28T14:15:24.745Z,101986.55
2023-01-28T14:17:56.129Z,101988.47
2023-01-28T14:20:39.730Z,101992.84
2023-01-28T14:23:17.714Z,101996.91
2023-01-28T14:26:05.883Z,101995.35
2023-01-28T14:29:03.487Z,101991.05
2023-01-28T14:31:34.484Z,101994.85
2023-01-28T14:34:09.479Z,101989.45
2023-01-28T14:36:40.632Z,101983.10
2023-01-28T14:39:17.922Z,101989.90
2023-01-28T14:41:48.815Z,101987.25
2023-01-28T14:44:36.863Z,101988.30
2023-01-28T14:47:10.759Z,101980.41
2023-01-28T14:50:02.819Z,101988.61
2023-01-28T14:52:43.742Z,101985.94
2023-01-28T14:55:29.253Z,101979.09
2023-01-28T14:58:00.830Z,101978.99
2023-01-28T15:00:32.884Z,101984.73
2023-01-28T15:03:01.848Z,101981.10
2023-01-28T15:05:31.763Z,101979.42
2023-01-28T15:08:00.804Z,101976.48
2023-01-28T15:10:33.046Z,101970.64
2023-01-28T15:13:16.879Z,101966.98
2023-01-28T15:15:49.927Z,101968.50
2023-01-28T15:18:29.471Z,101968.46
2023-01-28T15:20:59.738Z,101967.55
2023-01-28T15:23:50.014Z,101967.80
2023-01-28T15:26:22.418Z,101966.16
2023-01-28T15:28:51.493Z,101963.83
2023-01-28T15:31:32.739Z,101957.81
2023-01-28T15:34:11.093Z,101959.63
2023-01-28T15:36:39.491Z,101963.71
2023-01-28T15:39:15.494Z,101966.76
2023-01-28T15:41:50.264Z,101965.70
2023-01-28T15:44:29.281Z,101962.95
2023-01-28T15:47:02.303Z,101955.77
2023-01-28T15:49:42.318Z,101955.04
2023-01-28T15:52:10.762Z,101960.79
2023-01-28T15:54:44.511Z,101954.80
2023-01-28T15:57:27.447Z,101948.10
2023-01-28T16:00:18.545Z,101949.95
2023-01-28T16:02:52.696Z,101951.27
2023-01-28T16:05:34.803Z,101948.73
2023-01-28T16:08:08.324Z,101946.19
2023-01-28T16:10:36.746Z,101946.54
2023-01-28T16:13:10.663Z,101937.71
2023-01-28T16:15:39.430Z,101939.77
2023-01-28T16:18:07.405Z,101944.95
2023-01-28T16:20:35.478Z,101945.02
2023-01-28T16:23:04.408Z,101944.88
2023-01-28T16:25:34.994Z,101943.44
2023-01-28T16:28:03.537Z,101940.21
2023-01-28T16:30:31.457Z,101938.97
2023-01-28T16:33:00.468Z,101943.50
2023-01-28T16:35:47.224Z,101947.20
2023-01-28T16:38:19.003Z,101948.27
2023-01-28T16:40:48.033Z,101958.23
2023-01-28T16:43:17.222Z,101958.98
2023-01-28T16:45:46.298Z,101952.13
2023-01-28T16:48:14.383Z,101958.31
2023-01-28T16:50:43.587Z,101967.33
2023-01-28T16:53:23.033Z,101969.98
2023-01-28T16:55:52.145Z,101977.64
2023-01-28T16:58:25.082Z,101973.88
2023-01-28T17:00:53.421Z,101973.10
2023-01-28T17:03:22.115Z,101982.69
2023-01-28T17:05:50.221Z,101995.22
2023-01-28T17:08:18.237Z,102001.53
2023-01-28T17:10:52.269Z,102001.80
2023-01-28T17:13:20.891Z,101998.56
2023-01-28T17:15:48.976Z,102002.96
2023-01-28T17:18:17.156Z,102010.40
2023-01-28T17:20:45.096Z,102010.60
2023-01-28T17:23:16.073Z,102011.91
2023-01-28T17:25:44.157Z,102012.63
2023-01-28T17:28:12.105Z,102015.34
2023-01-28T17:30:41.810Z,102016.40
2023-01-28T17:33:10.027Z,102018.28
2023-01-28T17:35:38.112Z,102014.23
2023-01-28T17:38:06.111Z,102014.75
2023-01-28T17:40:34.065Z,102015.75
2023-01-28T17:43:01.866Z,102017.46
2023-01-28T17:45:33.818Z,102019.41
2023-01-28T17:48:02.033Z,102022.88
2023-01-28T17:50:30.022Z,102014.48
2023-01-28T17:52:58.074Z,102011.65
2023-01-28T17:55:26.604Z,102009.45
2023-01-28T17:57:54.592Z,102015.38
2023-01-28T18:00:22.877Z,102013.89
2023-01-28T18:02:52.547Z,102005.91
2023-01-28T18:05:21.115Z,102003.09
2023-01-28T18:07:50.492Z,102013.10
2023-01-28T18:10:19.190Z,102016.63
2023-01-28T18:12:47.081Z,102011.35
2023-01-28T18:15:15.265Z,102010.27
2023-01-28T18:17:43.404Z,102015.54
2023-01-28T18:20:11.730Z,102020.84
2023-01-28T18:22:39.637Z,102022.84
2023-01-28T18:25:08.198Z,102029.23
2023-01-28T18:27:36.152Z,102039.10
2023-01-28T18:30:04.531Z,102042.08
2023-01-28T18:32:32.465Z,102041.68
2023-01-28T18:35:02.362Z,102038.63
2023-01-28T18:37:30.212Z,102040.44
2023-01-28T18:39:58.371Z,102043.13
2023-01-28T18:42:26.421Z,102044.94
2023-01-28T18:44:54.349Z,102045.87
2023-01-28T18:47:22.217Z,102036.80
2023-01-28T18:49:50.174Z,102029.02
2023-01-28T18:52:18.086Z,102033.84
2023-01-28T18:54:46.326Z,102043.58
2023-01-28T18:57:14.262Z,102046.35
2023-01-28T18:59:42.206Z,102047.24
2023-01-28T19:02:13.864Z,102042.68
2023-01-28T19:04:41.789Z,102042.66
2023-01-28T19:07:11.789Z,102041.73
2023-01-28T19:09:39.876Z,102045.00
2023-01-28T19:12:08.259Z,102039.02
2023-01-28T19:14:36.306Z,102035.75
2023-01-28T19:17:04.309Z,102035.33
2023-01-28T19:19:32.495Z,102032.58
2023-01-28T19:22:00.522Z,102025.38
2023-01-28T19:24:28.780Z,102015.56
2023-01-28T19:26:57.045Z,102022.30
2023-01-28T19:29:27.363Z,102023.57
2023-01-28T19:31:55.609Z,102020.77
2023-01-28T19:34:23.640Z,102018.45
2023-01-28T19:36:51.700Z,102013.59
2023-01-28T19:39:19.588Z,102015.41
2023-01-28T19:41:47.495Z,102024.66
2023-01-28T19:44:15.453Z,102030.42
2023-01-28T19:46:43.592Z,102031.67
2023-01-28T19:49:12.706Z,102032.76
2023-01-28T19:51:40.933Z,102028.40
2023-01-28T19:54:08.841Z,102024.95
2023-01-28T19:56:37.678Z,102025.63
2023-01-28T19:59:06.071Z,102021.79
2023-01-28T20:01:36.049Z,102025.47
2023-01-28T20:04:04.904Z,102020.25
2023-01-28T20:06:35.175Z,102026.95
2023-01-28T20:09:09.146Z,102023.68
2023-01-28T20:11:37.364Z,102026.84
2023-01-28T20:14:05.302Z,102031.02
2023-01-28T20:16:35.148Z,102019.30
2023-01-28T20:19:12.745Z,102021.19
2023-01-28T20:21:40.916Z,102024.08
2023-01-28T20:24:12.248Z,102027.22
2023-01-28T20:26:41.907Z,102024.83
2023-01-28T20:29:13.542Z,102021.02
2023-01-28T20:31:42.612Z,102024.46
2023-01-28T20:34:16.070Z,102024.34
2023-01-28T20:36:44.471Z,102028.74
2023-01-28T20:39:13.631Z,102020.77
2023-01-28T20:41:41.531Z,102013.16
2023-01-28T20:44:09.702Z,102009.18
2023-01-28T20:46:38.996Z,102004.77
2023-01-28T20:49:07.154Z,102008.60
2023-01-28T20:51:36.168Z,102004.86
2023-01-28T20:54:04.278Z,101996.14
2023-01-28T20:56:32.747Z,101992.01
2023-01-28T20:59:04.284Z,101989.30
2023-01-28T21:01:35.664Z,101986.21
2023-01-28T21:04:05.659Z,101989.81
2023-01-28T21:06:33.688Z,101989.30
2023-01-28T21:09:02.067Z,101994.58
2023-01-28T21:11:30.228Z,101997.85
2023-01-28T21:13:58.599Z,102007.04
2023-01-28T21:16:27.068Z,102006.94
2023-01-28T21:18:54.953Z,102013.73
2023-01-28T21:21:25.343Z,102013.56
2023-01-28T21:23:59.373Z,102009.40
2023-01-28T21:26:28.341Z,102014.70
2023-01-28T21:28:56.600Z,102016.85
2023-01-28T21:31:26.001Z,102017.27
2023-01-28T21:33:56.711Z,102025.17
2023-01-28T21:36:26.111Z,102022.33
2023-01-28T21:38:57.078Z,102013.77
2023-01-28T21:41:25.753Z,102012.48
2023-01-28T21:43:57.283Z,102008.40
2023-01-28T21:46:28.149Z,102009.77
2023-01-28T21:48:57.884Z,102004.91
2023-01-28T21:51:38.054Z,102002.50
2023-01-28T21:54:12.992Z,102004.27
2023-01-28T21:56:43.996Z,102003.42
2023-01-28T21:59:27.977Z,102002.65
2023-01-28T22:02:00.546Z,102008.36
2023-01-28T22:04:46.933Z,102010.80
2023-01-28T22:07:20.124Z,102015.90
2023-01-28T22:09:48.664Z,102013.15
2023-01-28T22:12:16.867Z,102005.91
2023-01-28T22:14:46.935Z,101999.02
2023-01-28T22:17:18.697Z,101994.23
2023-01-28T22:19:48.252Z,101996.50
2023-01-28T22:22:16.972Z,101997.17
2023-01-28T22:24:45.099Z,101999.09
2023-01-28T22:27:14.116Z,101999.96
2023-01-28T22:29:42.050Z,101995.16
2023-01-28T22:32:09.880Z,101990.32
2023-01-28T22:34:37.899Z,101994.52
2023-01-28T22:37:07.339Z,102003.47
2023-01-28T22:39:35.186Z,102008.48
2023-01-28T22:42:03.428Z,102003.06
2023-01-28T22:44:31.246Z,101987.91
2023-01-28T22:46:59.324Z,101981.02
2023-01-28T22:49:27.327Z,101983.39
2023-01-28T22:51:55.221Z,101987.10
2023-01-28T22:54:23.089Z,101998.80
2023-01-28T22:56:50.990Z,102000.95
2023-01-28T22:59:18.899Z,101999.14
2023-01-28T23:01:46.888Z,101996.36
2023-01-28T23:04:14.896Z,101992.41
2023-01-28T23:06:42.982Z,101990.48
2023-01-28T23:09:10.895Z,101991.73
2023-01-28T23:11:38.930Z,101993.80
2023-01-28T23:14:25.566Z,101994.13
2023-01-28T23:17:12.146Z,101990.59
2023-01-28T23:19:58.842Z,101990.58
2023-01-28T23:22:52.649Z,101986.16
2023-01-28T23:25:23.824Z,101982.81
2023-01-28T23:27:51.782Z,101975.11
2023-01-28T23:30:25.156Z,101972.84
2023-01-28T23:32:58.306Z,101970.23
2023-01-28T23:35:26.189Z,101966.20
2023-01-28T23:37:54.849Z,101961.73
2023-01-28T23:40:24.692Z,101948.38
2023-01-28T23:42:54.219Z,101934.88
2023-01-28T23:45:22.503Z,101929.84
2023-01-28T23:47:50.566Z,101932.52
2023-01-28T23:50:19.301Z,101938.77
2023-01-28T23:52:47.341Z,101937.54
2023-01-28T23:55:16.078Z,101930.27
2023-01-28T23:57:43.914Z,101923.37
